GW0435 Weather Reports


Display with metric or nautical units.
time (UTC)temp
F
wind
direction
speed
MPH
gust
MPH
rain 1hr
in
rain 24hr
in
rain mn
in
humidity
%
barometer
mb
20240304073030 41 229 5.0 9.0 0.00 0.00 0.00 41 1003.8
20240304071530 42 229 4.0 10.0 0.00 0.00 0.00 40 1003.6
20240304070029 43 229 5.0 10.0 0.00 0.00 0.00 38 1003.7
20240304064531 43 221 5.0 11.0 0.00 0.00 0.00 37 1003.8
20240304063021 43 223 5.0 11.0 0.00 0.00 0.00 36 1003.8
20240304061523 44 185 2.0 7.0 0.00 0.00 0.00 36 1003.9
20240304060022 44 180 2.0 11.0 0.00 0.00 0.00 35 1003.8
20240304054520 42 273 3.0 5.0 0.00 0.00 0.00 38 1003.7
20240304053024 43 273 0.0 3.0 0.00 0.00 0.00 37 1003.5
20240304051518 44 273 2.0 4.0 0.00 0.00 0.00 36 1003.0
20240304050017 44 273 2.0 6.0 0.00 0.00 0.00 36 1002.9
20240304044517 45 273 3.0 8.0 0.00 0.00 0.00 35 1002.8
20240304043018 46 270 3.0 9.0 0.00 0.00 0.00 34 1002.7
20240304041515 46 232 3.0 7.0 0.00 0.00 0.00 34 1002.6
20240304040021 47 232 2.0 11.0 0.00 0.00 0.00 32 1002.6
20240304034515 48 210 3.0 17.0 0.00 0.00 0.00 32 1002.6
20240304033014 46 240 2.0 4.0 0.00 0.00 0.00 32 1002.4
20240304031513 47 240 0.0 4.0 0.00 0.00 0.00 32 1002.3
20240304030014 48 240 2.0 5.0 0.00 0.00 0.00 31 1002.3
20240304024513 48 240 2.0 6.0 0.00 0.00 0.00 30 1002.1
20240304023011 48 240 1.0 4.0 0.00 0.00 0.00 29 1001.6
20240304021516 49 240 1.0 3.0 0.00 0.00 0.00 29 1001.4
20240304020011 49 240 1.0 3.0 0.00 0.00 0.00 29 1001.3
20240304014510 50 240 2.0 4.0 0.00 0.00 0.00 28 1001.1
20240304013010 51 240 0.0 4.0 0.00 0.00 0.00 27 1000.5
20240304011513 52 240 1.0 7.0 0.00 0.00 0.00 26 1000.3
20240304010009 54 240 3.0 9.0 0.00 0.00 0.00 24 1000.0
20240304004509 55 263 6.0 12.0 0.00 0.00 0.00 23 999.8
20240304003013 56 271 7.0 13.0 0.00 0.00 0.00 22 999.9
20240304001510 57 236 6.0 14.0 0.00 0.00 0.00 21 999.7
20240304000009 58 266 4.0 11.0 0.00 0.00 0.00 21 999.8
20240303234507 58 280 8.0 13.0 0.00 0.00 0.00 20 999.7
20240303233008 58 292 7.0 15.0 0.00 0.00 0.00 20 999.5
20240303231508 59 205 6.0 17.0 0.00 0.00 0.00 19 999.3
20240303230011 60 267 7.0 21.0 0.00 0.00 0.00 18 999.5
20240303224504 59 278 5.0 17.0 0.00 0.00 0.00 18 999.3
20240303223004 59 224 11.0 28.0 0.00 0.00 0.00 17 999.3
20240303221506 60 190 11.0 20.0 0.00 0.00 0.00 17 999.3
20240303220100 60 207 6.0 20.0 0.00 0.00 0.00 17 999.5
20240303214609 59 239 7.0 18.0 0.00 0.00 0.00 17 999.6
20240303213056 58 225 11.0 24.0 0.00 0.00 0.00 17 999.7
20240303211553 58 219 12.0 21.0 0.00 0.00 0.00 19 1000.1
20240303210050 57 240 13.0 23.0 0.00 0.00 0.00 19 1000.6
20240303204550 57 288 7.0 19.0 0.00 0.00 0.00 22 1001.2
20240303203046 56 243 5.0 19.0 0.00 0.00 0.00 22 1001.5
20240303201543 56 221 10.0 16.0 0.00 0.00 0.00 22 1001.7
20240303200041 56 272 6.0 16.0 0.00 0.00 0.00 23 1002.1
20240303194542 55 248 7.0 19.0 0.00 0.00 0.00 23 1002.3
20240303193035 54 236 4.0 14.0 0.00 0.00 0.00 25 1002.6
20240303191534 53 219 6.0 18.0 0.00 0.00 0.00 24 1002.9
20240303190031 53 238 8.0 17.0 0.00 0.00 0.00 25 1003.5
20240303184529 51 173 7.0 13.0 0.00 0.00 0.00 26 1003.7
20240303183025 51 246 7.0 16.0 0.00 0.00 0.00 26 1004.0
20240303181522 51 191 5.0 13.0 0.00 0.00 0.00 27 1004.2
20240303180019 50 205 6.0 14.0 0.00 0.00 0.00 28 1004.3
20240303174516 49 258 4.0 11.0 0.00 0.00 0.00 29 1004.3
20240303173011 48 223 8.0 14.0 0.00 0.00 0.00 29 1004.5
20240303171509 47 215 5.0 9.0 0.00 0.00 0.00 29 1004.6
20240303170103 47 186 9.0 17.0 0.00 0.00 0.00 28 1004.7
20240303164604 46 233 10.0 18.0 0.00 0.00 0.00 29 1004.6
20240303163055 45 226 11.0 18.0 0.00 0.00 0.00 29 1004.6
20240303161551 44 213 6.0 13.0 0.00 0.00 0.00 28 1004.6
20240303160047 44 216 6.0 13.0 0.00 0.00 0.00 29 1004.5
20240303154543 44 191 7.0 14.0 0.00 0.00 0.00 29 1004.6
20240303153038 43 175 3.0 12.0 0.00 0.00 0.00 30 1004.7
20240303151533 43 166 4.0 8.0 0.00 0.00 0.00 30 1004.5
20240303150030 43 163 1.0 8.0 0.00 0.00 0.00 30 1004.5
20240303144528 42 163 1.0 7.0 0.00 0.00 0.00 31 1004.2
20240303143020 40 148 3.0 10.0 0.00 0.00 0.00 32 1004.0
20240303141516 39 128 2.0 8.0 0.00 0.00 0.00 34 1004.0
20240303140015 37 128 5.0 14.0 0.00 0.00 0.00 36 1003.7
20240303134511 36 171 2.0 7.0 0.00 0.00 0.00 37 1003.5
20240303133006 36 173 3.0 8.0 0.00 0.00 0.00 38 1003.5
20240303131504 35 175 5.0 7.0 0.00 0.00 0.00 37 1003.4
20240303130002 37 175 1.0 7.0 0.00 0.00 0.00 39 1003.6
20240303124501 36 175 0.0 5.0 0.00 0.00 0.00 37 1003.3
20240303123059 36 175 1.0 4.0 0.00 0.00 0.00 37 1003.3
20240303121607 36 175 1.0 5.0 0.00 0.00 0.00 35 1003.2
20240303120102 36 180 2.0 6.0 0.00 0.00 0.00 37 1003.0
20240303114557 36 180 2.0 5.0 0.00 0.00 0.00 37 1002.9
20240303113057 36 180 2.0 5.0 0.00 0.00 0.00 37 1002.9
20240303111554 36 180 2.0 8.0 0.00 0.00 0.00 36 1002.8
20240303110053 36 180 2.0 4.0 0.00 0.00 0.00 37 1002.7
20240303104550 37 180 1.0 6.0 0.00 0.00 0.00 36 1002.7
20240303103047 38 180 1.0 7.0 0.00 0.00 0.00 35 1002.8
20240303101549 38 180 3.0 7.0 0.00 0.00 0.00 34 1002.7
20240303100053 38 180 2.0 6.0 0.00 0.00 0.00 33 1002.6
20240303094546 38 180 2.0 6.0 0.00 0.00 0.00 33 1002.8
20240303093043 38 181 3.0 5.0 0.00 0.00 0.00 33 1002.7
20240303091540 39 181 5.0 12.0 0.00 0.00 0.00 32 1002.7
20240303090053 40 182 5.0 11.0 0.00 0.00 0.00 31 1002.6
20240303084542 40 186 7.0 10.0 0.00 0.00 0.00 30 1002.8
20240303083051 41 187 6.0 11.0 0.00 0.00 0.00 29 1002.8
20240303081529 41 188 6.0 12.0 0.00 0.00 0.00 28 1003.0
20240303080027 41 197 7.0 11.0 0.00 0.00 0.00 27 1003.3
20240303074526 42 211 7.0 14.0 0.00 0.00 0.00 27 1003.3